sensor_id;sensor_type;location;lat;lon;timestamp;P1;durP1;ratioP1;P2;durP2;ratioP2
13891;SDS011;7016;48.172;8.058;2022-08-21T00:02:17;6.53;;;2.05;;
13891;SDS011;7016;48.172;8.058;2022-08-21T00:04:44;5.28;;;1.95;;
13891;SDS011;7016;48.172;8.058;2022-08-21T00:07:12;3.47;;;1.65;;
13891;SDS011;7016;48.172;8.058;2022-08-21T00:09:39;6.03;;;1.75;;
13891;SDS011;7016;48.172;8.058;2022-08-21T00:12:05;2.15;;;1.55;;
13891;SDS011;7016;48.172;8.058;2022-08-21T00:14:32;4.15;;;1.70;;
13891;SDS011;7016;48.172;8.058;2022-08-21T00:16:58;2.92;;;1.77;;
13891;SDS011;7016;48.172;8.058;2022-08-21T00:19:23;6.50;;;1.75;;
13891;SDS011;7016;48.172;8.058;2022-08-21T00:21:53;2.83;;;1.60;;
13891;SDS011;7016;48.172;8.058;2022-08-21T00:24:20;5.75;;;2.50;;
13891;SDS011;7016;48.172;8.058;2022-08-21T00:26:47;4.40;;;1.77;;
13891;SDS011;7016;48.172;8.058;2022-08-21T00:29:14;6.15;;;1.80;;
13891;SDS011;7016;48.172;8.058;2022-08-21T00:31:41;3.60;;;1.90;;
13891;SDS011;7016;48.172;8.058;2022-08-21T00:34:07;2.38;;;1.52;;
13891;SDS011;7016;48.172;8.058;2022-08-21T00:36:34;4.50;;;1.80;;
13891;SDS011;7016;48.172;8.058;2022-08-21T00:39:00;5.20;;;1.77;;
13891;SDS011;7016;48.172;8.058;2022-08-21T00:41:27;13.23;;;1.70;;
13891;SDS011;7016;48.172;8.058;2022-08-21T00:43:53;8.13;;;1.65;;
13891;SDS011;7016;48.172;8.058;2022-08-21T00:46:19;3.03;;;1.75;;
13891;SDS011;7016;48.172;8.058;2022-08-21T00:48:45;4.65;;;1.90;;
13891;SDS011;7016;48.172;8.058;2022-08-21T00:51:23;4.97;;;2.03;;
13891;SDS011;7016;48.172;8.058;2022-08-21T00:53:54;1.90;;;1.48;;
13891;SDS011;7016;48.172;8.058;2022-08-21T00:56:23;5.82;;;1.60;;
13891;SDS011;7016;48.172;8.058;2022-08-21T00:58:50;4.43;;;1.50;;
13891;SDS011;7016;48.172;8.058;2022-08-21T01:01:17;6.20;;;1.85;;
13891;SDS011;7016;48.172;8.058;2022-08-21T01:03:43;5.20;;;1.77;;
13891;SDS011;7016;48.172;8.058;2022-08-21T01:06:10;2.63;;;1.60;;
13891;SDS011;7016;48.172;8.058;2022-08-21T01:08:36;3.97;;;1.70;;
13891;SDS011;7016;48.172;8.058;2022-08-21T01:11:02;4.85;;;1.67;;
13891;SDS011;7016;48.172;8.058;2022-08-21T01:13:30;5.03;;;1.95;;
13891;SDS011;7016;48.172;8.058;2022-08-21T01:15:59;6.47;;;2.22;;
13891;SDS011;7016;48.172;8.058;2022-08-21T01:18:27;5.20;;;1.70;;
13891;SDS011;7016;48.172;8.058;2022-08-21T01:23:28;3.33;;;1.48;;
13891;SDS011;7016;48.172;8.058;2022-08-21T01:25:54;7.03;;;1.98;;
13891;SDS011;7016;48.172;8.058;2022-08-21T01:28:21;5.38;;;1.60;;
13891;SDS011;7016;48.172;8.058;2022-08-21T01:30:47;2.42;;;1.83;;
13891;SDS011;7016;48.172;8.058;2022-08-21T01:33:16;2.85;;;1.70;;
13891;SDS011;7016;48.172;8.058;2022-08-21T01:35:45;4.22;;;1.80;;
13891;SDS011;7016;48.172;8.058;2022-08-21T01:38:10;5.90;;;2.08;;
13891;SDS011;7016;48.172;8.058;2022-08-21T01:40:37;3.58;;;1.70;;
13891;SDS011;7016;48.172;8.058;2022-08-21T01:43:03;5.75;;;2.42;;
13891;SDS011;7016;48.172;8.058;2022-08-21T01:45:29;3.00;;;2.00;;
13891;SDS011;7016;48.172;8.058;2022-08-21T01:47:55;3.30;;;1.95;;
13891;SDS011;7016;48.172;8.058;2022-08-21T01:50:21;3.42;;;2.00;;
13891;SDS011;7016;48.172;8.058;2022-08-21T01:52:46;3.92;;;1.77;;
13891;SDS011;7016;48.172;8.058;2022-08-21T01:55:13;9.88;;;1.98;;
13891;SDS011;7016;48.172;8.058;2022-08-21T01:57:40;3.35;;;1.45;;
13891;SDS011;7016;48.172;8.058;2022-08-21T02:00:07;3.70;;;2.05;;
13891;SDS011;7016;48.172;8.058;2022-08-21T02:02:36;8.15;;;2.70;;
13891;SDS011;7016;48.172;8.058;2022-08-21T02:05:02;4.10;;;2.05;;
13891;SDS011;7016;48.172;8.058;2022-08-21T02:07:34;5.57;;;2.28;;
13891;SDS011;7016;48.172;8.058;2022-08-21T02:10:10;2.55;;;1.40;;
13891;SDS011;7016;48.172;8.058;2022-08-21T02:12:39;4.80;;;2.03;;
13891;SDS011;7016;48.172;8.058;2022-08-21T02:15:05;3.22;;;2.20;;
13891;SDS011;7016;48.172;8.058;2022-08-21T02:20:04;8.18;;;2.17;;
13891;SDS011;7016;48.172;8.058;2022-08-21T02:22:30;6.10;;;2.10;;
13891;SDS011;7016;48.172;8.058;2022-08-21T02:24:55;7.43;;;1.88;;
13891;SDS011;7016;48.172;8.058;2022-08-21T02:27:22;6.22;;;1.80;;
13891;SDS011;7016;48.172;8.058;2022-08-21T02:29:48;6.50;;;2.15;;
13891;SDS011;7016;48.172;8.058;2022-08-21T02:32:14;4.85;;;1.63;;
13891;SDS011;7016;48.172;8.058;2022-08-21T02:34:40;3.45;;;1.80;;
13891;SDS011;7016;48.172;8.058;2022-08-21T02:37:05;6.25;;;1.90;;
13891;SDS011;7016;48.172;8.058;2022-08-21T02:39:31;4.53;;;1.83;;
13891;SDS011;7016;48.172;8.058;2022-08-21T02:41:57;7.03;;;1.65;;
13891;SDS011;7016;48.172;8.058;2022-08-21T02:44:22;5.18;;;1.85;;
13891;SDS011;7016;48.172;8.058;2022-08-21T02:46:48;6.93;;;2.05;;
13891;SDS011;7016;48.172;8.058;2022-08-21T02:49:14;6.63;;;1.95;;
13891;SDS011;7016;48.172;8.058;2022-08-21T02:51:39;3.50;;;1.88;;
13891;SDS011;7016;48.172;8.058;2022-08-21T02:54:06;2.65;;;1.50;;
13891;SDS011;7016;48.172;8.058;2022-08-21T02:56:32;5.05;;;1.83;;
13891;SDS011;7016;48.172;8.058;2022-08-21T02:58:57;4.55;;;1.85;;
13891;SDS011;7016;48.172;8.058;2022-08-21T03:01:23;3.42;;;1.95;;
13891;SDS011;7016;48.172;8.058;2022-08-21T03:03:49;6.07;;;2.15;;
13891;SDS011;7016;48.172;8.058;2022-08-21T03:06:15;7.43;;;2.00;;
13891;SDS011;7016;48.172;8.058;2022-08-21T03:08:44;3.53;;;1.77;;
13891;SDS011;7016;48.172;8.058;2022-08-21T03:11:10;3.55;;;2.10;;
13891;SDS011;7016;48.172;8.058;2022-08-21T03:13:36;5.57;;;1.90;;
13891;SDS011;7016;48.172;8.058;2022-08-21T03:16:02;10.10;;;2.58;;
13891;SDS011;7016;48.172;8.058;2022-08-21T03:18:28;4.05;;;2.15;;
13891;SDS011;7016;48.172;8.058;2022-08-21T03:20:54;5.90;;;1.80;;
13891;SDS011;7016;48.172;8.058;2022-08-21T03:23:19;4.80;;;1.90;;
13891;SDS011;7016;48.172;8.058;2022-08-21T03:25:45;7.07;;;2.38;;
13891;SDS011;7016;48.172;8.058;2022-08-21T03:28:14;3.25;;;2.20;;
13891;SDS011;7016;48.172;8.058;2022-08-21T03:30:42;5.00;;;2.10;;
13891;SDS011;7016;48.172;8.058;2022-08-21T03:33:08;2.97;;;1.80;;
13891;SDS011;7016;48.172;8.058;2022-08-21T03:35:34;4.43;;;1.60;;
13891;SDS011;7016;48.172;8.058;2022-08-21T03:38:00;2.60;;;1.75;;
13891;SDS011;7016;48.172;8.058;2022-08-21T03:40:26;6.82;;;2.30;;
13891;SDS011;7016;48.172;8.058;2022-08-21T03:42:52;7.88;;;2.05;;
13891;SDS011;7016;48.172;8.058;2022-08-21T03:45:18;8.13;;;2.10;;
13891;SDS011;7016;48.172;8.058;2022-08-21T03:47:52;4.85;;;1.95;;
13891;SDS011;7016;48.172;8.058;2022-08-21T03:50:23;10.65;;;2.25;;
13891;SDS011;7016;48.172;8.058;2022-08-21T03:52:50;2.72;;;2.00;;
13891;SDS011;7016;48.172;8.058;2022-08-21T03:55:16;4.53;;;2.25;;
13891;SDS011;7016;48.172;8.058;2022-08-21T03:57:42;6.20;;;2.05;;
13891;SDS011;7016;48.172;8.058;2022-08-21T04:00:09;3.60;;;2.33;;
13891;SDS011;7016;48.172;8.058;2022-08-21T04:02:37;8.02;;;2.45;;
13891;SDS011;7016;48.172;8.058;2022-08-21T04:05:04;6.07;;;2.28;;
13891;SDS011;7016;48.172;8.058;2022-08-21T04:07:31;7.80;;;2.28;;
13891;SDS011;7016;48.172;8.058;2022-08-21T04:09:57;3.65;;;1.63;;
13891;SDS011;7016;48.172;8.058;2022-08-21T04:12:22;4.65;;;2.17;;
13891;SDS011;7016;48.172;8.058;2022-08-21T04:14:48;5.22;;;1.95;;
13891;SDS011;7016;48.172;8.058;2022-08-21T04:17:16;7.05;;;2.20;;
13891;SDS011;7016;48.172;8.058;2022-08-21T04:19:43;3.22;;;2.20;;
13891;SDS011;7016;48.172;8.058;2022-08-21T04:22:09;5.85;;;2.22;;
13891;SDS011;7016;48.172;8.058;2022-08-21T04:24:35;7.95;;;2.90;;
13891;SDS011;7016;48.172;8.058;2022-08-21T04:27:01;4.80;;;2.22;;
13891;SDS011;7016;48.172;8.058;2022-08-21T04:29:26;5.68;;;2.50;;
13891;SDS011;7016;48.172;8.058;2022-08-21T04:31:52;6.80;;;2.38;;
13891;SDS011;7016;48.172;8.058;2022-08-21T04:34:18;5.47;;;2.22;;
13891;SDS011;7016;48.172;8.058;2022-08-21T04:36:44;5.53;;;2.38;;
13891;SDS011;7016;48.172;8.058;2022-08-21T04:39:10;5.88;;;2.33;;
13891;SDS011;7016;48.172;8.058;2022-08-21T04:41:35;3.05;;;2.00;;
13891;SDS011;7016;48.172;8.058;2022-08-21T04:44:02;7.93;;;2.60;;
13891;SDS011;7016;48.172;8.058;2022-08-21T04:46:28;5.18;;;1.98;;
13891;SDS011;7016;48.172;8.058;2022-08-21T04:48:54;6.55;;;2.22;;
13891;SDS011;7016;48.172;8.058;2022-08-21T04:51:32;3.47;;;2.13;;
13891;SDS011;7016;48.172;8.058;2022-08-21T04:54:02;5.03;;;2.08;;
13891;SDS011;7016;48.172;8.058;2022-08-21T04:59:04;4.20;;;2.28;;
13891;SDS011;7016;48.172;8.058;2022-08-21T05:01:35;5.00;;;2.47;;
13891;SDS011;7016;48.172;8.058;2022-08-21T05:04:03;3.67;;;2.05;;
13891;SDS011;7016;48.172;8.058;2022-08-21T05:06:34;8.90;;;2.80;;
13891;SDS011;7016;48.172;8.058;2022-08-21T05:09:02;7.00;;;2.70;;
13891;SDS011;7016;48.172;8.058;2022-08-21T05:11:31;6.32;;;2.45;;
13891;SDS011;7016;48.172;8.058;2022-08-21T05:13:58;6.90;;;2.30;;
13891;SDS011;7016;48.172;8.058;2022-08-21T05:16:24;8.00;;;2.55;;
13891;SDS011;7016;48.172;8.058;2022-08-21T05:18:50;5.47;;;2.50;;
13891;SDS011;7016;48.172;8.058;2022-08-21T05:21:16;6.72;;;2.47;;
13891;SDS011;7016;48.172;8.058;2022-08-21T05:23:42;5.75;;;2.17;;
13891;SDS011;7016;48.172;8.058;2022-08-21T05:26:07;5.75;;;2.20;;
13891;SDS011;7016;48.172;8.058;2022-08-21T05:28:33;12.70;;;2.92;;
13891;SDS011;7016;48.172;8.058;2022-08-21T05:31:00;7.68;;;2.13;;
13891;SDS011;7016;48.172;8.058;2022-08-21T05:33:26;9.93;;;2.78;;
13891;SDS011;7016;48.172;8.058;2022-08-21T05:35:52;8.85;;;2.67;;
13891;SDS011;7016;48.172;8.058;2022-08-21T05:38:20;6.43;;;2.67;;
13891;SDS011;7016;48.172;8.058;2022-08-21T05:40:47;6.80;;;2.72;;
13891;SDS011;7016;48.172;8.058;2022-08-21T05:43:13;11.00;;;2.80;;
13891;SDS011;7016;48.172;8.058;2022-08-21T05:45:39;5.65;;;2.95;;
13891;SDS011;7016;48.172;8.058;2022-08-21T05:48:05;6.43;;;3.10;;
13891;SDS011;7016;48.172;8.058;2022-08-21T05:50:32;11.75;;;2.72;;
13891;SDS011;7016;48.172;8.058;2022-08-21T05:52:58;6.43;;;2.83;;
13891;SDS011;7016;48.172;8.058;2022-08-21T05:55:23;5.15;;;2.60;;
13891;SDS011;7016;48.172;8.058;2022-08-21T05:57:49;4.70;;;2.50;;
13891;SDS011;7016;48.172;8.058;2022-08-21T06:00:15;5.55;;;2.83;;
13891;SDS011;7016;48.172;8.058;2022-08-21T06:02:41;8.75;;;3.38;;
13891;SDS011;7016;48.172;8.058;2022-08-21T06:05:07;6.53;;;2.90;;
13891;SDS011;7016;48.172;8.058;2022-08-21T06:07:33;7.03;;;3.22;;
13891;SDS011;7016;48.172;8.058;2022-08-21T06:09:58;9.60;;;3.45;;
13891;SDS011;7016;48.172;8.058;2022-08-21T06:12:24;6.45;;;3.05;;
13891;SDS011;7016;48.172;8.058;2022-08-21T06:14:50;8.25;;;3.35;;
13891;SDS011;7016;48.172;8.058;2022-08-21T06:17:17;7.30;;;3.30;;
13891;SDS011;7016;48.172;8.058;2022-08-21T06:19:43;5.32;;;3.00;;
13891;SDS011;7016;48.172;8.058;2022-08-21T06:22:09;11.63;;;3.90;;
13891;SDS011;7016;48.172;8.058;2022-08-21T06:24:35;8.13;;;3.50;;
13891;SDS011;7016;48.172;8.058;2022-08-21T06:27:05;7.88;;;3.80;;
13891;SDS011;7016;48.172;8.058;2022-08-21T06:29:32;9.38;;;3.85;;
13891;SDS011;7016;48.172;8.058;2022-08-21T06:31:59;7.97;;;3.55;;
13891;SDS011;7016;48.172;8.058;2022-08-21T06:34:25;11.48;;;4.20;;
13891;SDS011;7016;48.172;8.058;2022-08-21T06:36:51;10.23;;;4.35;;
13891;SDS011;7016;48.172;8.058;2022-08-21T06:39:16;10.95;;;4.25;;
13891;SDS011;7016;48.172;8.058;2022-08-21T06:41:42;6.75;;;3.70;;
13891;SDS011;7016;48.172;8.058;2022-08-21T06:44:08;9.88;;;4.50;;
13891;SDS011;7016;48.172;8.058;2022-08-21T06:46:35;12.68;;;4.55;;
13891;SDS011;7016;48.172;8.058;2022-08-21T06:49:01;9.45;;;3.97;;
13891;SDS011;7016;48.172;8.058;2022-08-21T06:51:28;10.40;;;3.72;;
13891;SDS011;7016;48.172;8.058;2022-08-21T06:53:53;9.68;;;4.15;;
13891;SDS011;7016;48.172;8.058;2022-08-21T06:56:20;9.38;;;3.72;;
13891;SDS011;7016;48.172;8.058;2022-08-21T06:58:46;7.60;;;3.80;;
13891;SDS011;7016;48.172;8.058;2022-08-21T07:01:12;9.88;;;3.88;;
13891;SDS011;7016;48.172;8.058;2022-08-21T07:03:39;11.15;;;3.97;;
13891;SDS011;7016;48.172;8.058;2022-08-21T07:06:06;12.30;;;3.80;;
13891;SDS011;7016;48.172;8.058;2022-08-21T07:08:33;10.70;;;4.03;;
13891;SDS011;7016;48.172;8.058;2022-08-21T07:11:00;8.80;;;4.10;;
13891;SDS011;7016;48.172;8.058;2022-08-21T07:13:28;7.18;;;3.50;;
13891;SDS011;7016;48.172;8.058;2022-08-21T07:15:54;15.50;;;4.05;;
13891;SDS011;7016;48.172;8.058;2022-08-21T07:18:20;8.27;;;4.00;;
13891;SDS011;7016;48.172;8.058;2022-08-21T07:20:46;9.77;;;4.30;;
13891;SDS011;7016;48.172;8.058;2022-08-21T07:23:15;7.32;;;3.83;;
13891;SDS011;7016;48.172;8.058;2022-08-21T07:25:54;10.23;;;4.35;;
13891;SDS011;7016;48.172;8.058;2022-08-21T07:28:20;9.20;;;4.10;;
13891;SDS011;7016;48.172;8.058;2022-08-21T07:30:50;10.15;;;4.20;;
13891;SDS011;7016;48.172;8.058;2022-08-21T07:33:17;9.80;;;4.10;;
13891;SDS011;7016;48.172;8.058;2022-08-21T07:35:43;16.58;;;4.20;;
13891;SDS011;7016;48.172;8.058;2022-08-21T07:38:12;11.65;;;4.43;;
13891;SDS011;7016;48.172;8.058;2022-08-21T07:40:47;8.63;;;4.32;;
13891;SDS011;7016;48.172;8.058;2022-08-21T07:43:16;14.27;;;4.32;;
13891;SDS011;7016;48.172;8.058;2022-08-21T07:45:43;9.80;;;4.13;;
13891;SDS011;7016;48.172;8.058;2022-08-21T07:48:10;8.88;;;3.65;;
13891;SDS011;7016;48.172;8.058;2022-08-21T07:50:36;7.95;;;3.95;;
13891;SDS011;7016;48.172;8.058;2022-08-21T07:53:02;8.32;;;4.30;;
13891;SDS011;7016;48.172;8.058;2022-08-21T07:55:29;9.88;;;4.47;;
13891;SDS011;7016;48.172;8.058;2022-08-21T07:57:55;12.63;;;4.53;;
13891;SDS011;7016;48.172;8.058;2022-08-21T08:00:22;8.40;;;4.10;;
13891;SDS011;7016;48.172;8.058;2022-08-21T08:02:49;11.93;;;4.85;;
13891;SDS011;7016;48.172;8.058;2022-08-21T08:05:17;11.48;;;4.72;;
13891;SDS011;7016;48.172;8.058;2022-08-21T08:07:44;15.20;;;4.30;;
13891;SDS011;7016;48.172;8.058;2022-08-21T08:10:10;10.60;;;3.78;;
13891;SDS011;7016;48.172;8.058;2022-08-21T08:12:37;11.27;;;4.40;;
13891;SDS011;7016;48.172;8.058;2022-08-21T08:15:05;10.27;;;4.50;;
13891;SDS011;7016;48.172;8.058;2022-08-21T08:17:34;10.05;;;4.50;;
13891;SDS011;7016;48.172;8.058;2022-08-21T08:20:01;11.93;;;3.92;;
13891;SDS011;7016;48.172;8.058;2022-08-21T08:22:27;9.88;;;4.40;;
13891;SDS011;7016;48.172;8.058;2022-08-21T08:24:53;13.10;;;3.85;;
13891;SDS011;7016;48.172;8.058;2022-08-21T08:27:20;12.40;;;4.25;;
13891;SDS011;7016;48.172;8.058;2022-08-21T08:29:46;8.77;;;3.38;;
13891;SDS011;7016;48.172;8.058;2022-08-21T08:32:13;10.30;;;3.90;;
13891;SDS011;7016;48.172;8.058;2022-08-21T08:34:39;14.07;;;4.30;;
13891;SDS011;7016;48.172;8.058;2022-08-21T08:37:06;10.45;;;3.55;;
13891;SDS011;7016;48.172;8.058;2022-08-21T08:39:33;8.48;;;3.88;;
13891;SDS011;7016;48.172;8.058;2022-08-21T08:44:39;8.55;;;4.03;;
13891;SDS011;7016;48.172;8.058;2022-08-21T08:47:11;8.30;;;3.70;;
13891;SDS011;7016;48.172;8.058;2022-08-21T08:49:43;9.30;;;3.45;;
13891;SDS011;7016;48.172;8.058;2022-08-21T08:52:27;9.75;;;3.72;;
13891;SDS011;7016;48.172;8.058;2022-08-21T08:55:06;9.90;;;3.78;;
13891;SDS011;7016;48.172;8.058;2022-08-21T08:57:35;10.40;;;3.83;;
13891;SDS011;7016;48.172;8.058;2022-08-21T09:00:04;8.63;;;4.00;;
13891;SDS011;7016;48.172;8.058;2022-08-21T09:02:35;10.43;;;3.92;;
13891;SDS011;7016;48.172;8.058;2022-08-21T09:05:05;9.25;;;4.13;;
13891;SDS011;7016;48.172;8.058;2022-08-21T09:07:40;8.55;;;3.58;;
13891;SDS011;7016;48.172;8.058;2022-08-21T09:10:17;16.42;;;4.30;;
13891;SDS011;7016;48.172;8.058;2022-08-21T09:13:07;9.82;;;3.40;;
13891;SDS011;7016;48.172;8.058;2022-08-21T09:18:37;7.78;;;3.13;;
13891;SDS011;7016;48.172;8.058;2022-08-21T09:26:22;7.60;;;2.75;;
13891;SDS011;7016;48.172;8.058;2022-08-21T09:28:53;7.63;;;2.30;;
13891;SDS011;7016;48.172;8.058;2022-08-21T09:33:47;6.85;;;2.40;;
13891;SDS011;7016;48.172;8.058;2022-08-21T09:36:13;12.27;;;2.42;;
13891;SDS011;7016;48.172;8.058;2022-08-21T09:38:54;13.32;;;2.63;;
13891;SDS011;7016;48.172;8.058;2022-08-21T09:41:29;8.27;;;2.13;;
13891;SDS011;7016;48.172;8.058;2022-08-21T09:43:56;6.10;;;2.65;;
13891;SDS011;7016;48.172;8.058;2022-08-21T09:46:24;6.60;;;2.35;;
13891;SDS011;7016;48.172;8.058;2022-08-21T09:48:56;7.95;;;2.10;;
13891;SDS011;7016;48.172;8.058;2022-08-21T09:56:37;4.15;;;1.90;;
13891;SDS011;7016;48.172;8.058;2022-08-21T09:59:28;6.97;;;2.40;;
13891;SDS011;7016;48.172;8.058;2022-08-21T10:01:59;8.90;;;2.40;;
13891;SDS011;7016;48.172;8.058;2022-08-21T10:04:30;5.70;;;1.83;;
13891;SDS011;7016;48.172;8.058;2022-08-21T10:07:09;6.72;;;2.10;;
13891;SDS011;7016;48.172;8.058;2022-08-21T10:09:43;6.35;;;2.10;;
13891;SDS011;7016;48.172;8.058;2022-08-21T10:25:52;5.22;;;2.00;;
13891;SDS011;7016;48.172;8.058;2022-08-21T10:28:32;5.15;;;2.13;;
13891;SDS011;7016;48.172;8.058;2022-08-21T10:31:14;8.43;;;2.28;;
13891;SDS011;7016;48.172;8.058;2022-08-21T10:40:10;5.25;;;2.25;;
13891;SDS011;7016;48.172;8.058;2022-08-21T10:48:27;8.50;;;1.75;;
13891;SDS011;7016;48.172;8.058;2022-08-21T10:54:12;6.18;;;1.98;;
13891;SDS011;7016;48.172;8.058;2022-08-21T10:56:47;6.50;;;2.05;;
13891;SDS011;7016;48.172;8.058;2022-08-21T11:07:34;4.85;;;1.90;;
13891;SDS011;7016;48.172;8.058;2022-08-21T11:10:24;3.90;;;1.90;;
13891;SDS011;7016;48.172;8.058;2022-08-21T11:12:51;5.82;;;1.92;;
13891;SDS011;7016;48.172;8.058;2022-08-21T11:15:39;5.45;;;2.30;;
13891;SDS011;7016;48.172;8.058;2022-08-21T11:18:32;5.47;;;2.07;;
13891;SDS011;7016;48.172;8.058;2022-08-21T11:26:30;4.72;;;1.70;;
13891;SDS011;7016;48.172;8.058;2022-08-21T11:29:02;5.78;;;1.90;;
13891;SDS011;7016;48.172;8.058;2022-08-21T11:40:42;7.63;;;2.30;;
13891;SDS011;7016;48.172;8.058;2022-08-21T11:49:05;6.97;;;2.20;;
13891;SDS011;7016;48.172;8.058;2022-08-21T11:52:16;4.35;;;1.95;;
13891;SDS011;7016;48.172;8.058;2022-08-21T11:59:41;6.15;;;2.10;;
13891;SDS011;7016;48.172;8.058;2022-08-21T12:02:20;6.35;;;2.00;;
13891;SDS011;7016;48.172;8.058;2022-08-21T12:04:53;6.05;;;2.00;;
13891;SDS011;7016;48.172;8.058;2022-08-21T12:07:33;5.25;;;1.88;;
13891;SDS011;7016;48.172;8.058;2022-08-21T12:10:06;3.97;;;1.80;;
13891;SDS011;7016;48.172;8.058;2022-08-21T12:12:39;3.28;;;1.92;;
13891;SDS011;7016;48.172;8.058;2022-08-21T12:17:58;5.20;;;2.22;;
13891;SDS011;7016;48.172;8.058;2022-08-21T12:23:02;5.85;;;2.00;;
13891;SDS011;7016;48.172;8.058;2022-08-21T12:25:38;6.78;;;2.47;;
13891;SDS011;7016;48.172;8.058;2022-08-21T12:28:24;6.65;;;2.10;;
13891;SDS011;7016;48.172;8.058;2022-08-21T12:30:50;5.90;;;2.00;;
13891;SDS011;7016;48.172;8.058;2022-08-21T12:33:22;4.50;;;1.90;;
13891;SDS011;7016;48.172;8.058;2022-08-21T12:35:48;6.30;;;2.10;;
13891;SDS011;7016;48.172;8.058;2022-08-21T12:40:55;6.15;;;2.35;;
13891;SDS011;7016;48.172;8.058;2022-08-21T12:46:17;4.95;;;2.10;;
13891;SDS011;7016;48.172;8.058;2022-08-21T12:48:52;5.75;;;2.28;;
13891;SDS011;7016;48.172;8.058;2022-08-21T12:51:29;5.65;;;2.42;;
13891;SDS011;7016;48.172;8.058;2022-08-21T12:54:24;7.50;;;2.10;;
13891;SDS011;7016;48.172;8.058;2022-08-21T12:56:56;4.10;;;1.98;;
13891;SDS011;7016;48.172;8.058;2022-08-21T12:59:27;7.18;;;2.50;;
13891;SDS011;7016;48.172;8.058;2022-08-21T13:01:54;6.25;;;2.40;;
13891;SDS011;7016;48.172;8.058;2022-08-21T13:04:22;5.03;;;2.00;;
13891;SDS011;7016;48.172;8.058;2022-08-21T13:07:04;5.55;;;2.17;;
13891;SDS011;7016;48.172;8.058;2022-08-21T13:09:40;5.65;;;2.30;;
13891;SDS011;7016;48.172;8.058;2022-08-21T13:12:28;7.93;;;2.20;;
13891;SDS011;7016;48.172;8.058;2022-08-21T13:14:56;4.95;;;2.05;;
13891;SDS011;7016;48.172;8.058;2022-08-21T13:17:25;4.10;;;1.90;;
13891;SDS011;7016;48.172;8.058;2022-08-21T13:20:02;4.55;;;1.80;;
13891;SDS011;7016;48.172;8.058;2022-08-21T13:22:30;3.88;;;1.90;;
13891;SDS011;7016;48.172;8.058;2022-08-21T13:24:57;4.28;;;2.00;;
13891;SDS011;7016;48.172;8.058;2022-08-21T13:27:27;7.85;;;2.28;;
13891;SDS011;7016;48.172;8.058;2022-08-21T13:32:44;5.63;;;1.83;;
13891;SDS011;7016;48.172;8.058;2022-08-21T13:35:18;6.38;;;2.00;;
13891;SDS011;7016;48.172;8.058;2022-08-21T13:37:46;5.38;;;2.08;;
13891;SDS011;7016;48.172;8.058;2022-08-21T13:40:20;5.82;;;2.15;;
13891;SDS011;7016;48.172;8.058;2022-08-21T13:42:53;8.05;;;2.20;;
13891;SDS011;7016;48.172;8.058;2022-08-21T13:45:25;5.78;;;2.13;;
13891;SDS011;7016;48.172;8.058;2022-08-21T13:47:55;5.32;;;2.10;;
13891;SDS011;7016;48.172;8.058;2022-08-21T13:50:23;4.43;;;2.03;;
13891;SDS011;7016;48.172;8.058;2022-08-21T13:53:00;7.07;;;2.25;;
13891;SDS011;7016;48.172;8.058;2022-08-21T13:55:34;4.65;;;1.95;;
13891;SDS011;7016;48.172;8.058;2022-08-21T13:58:03;4.38;;;1.98;;
13891;SDS011;7016;48.172;8.058;2022-08-21T14:00:31;6.10;;;1.70;;
13891;SDS011;7016;48.172;8.058;2022-08-21T14:03:10;6.35;;;2.22;;
13891;SDS011;7016;48.172;8.058;2022-08-21T14:05:43;3.13;;;1.60;;
13891;SDS011;7016;48.172;8.058;2022-08-21T14:08:13;6.47;;;2.05;;
13891;SDS011;7016;48.172;8.058;2022-08-21T14:10:47;4.22;;;1.80;;
13891;SDS011;7016;48.172;8.058;2022-08-21T14:13:26;4.88;;;1.90;;
13891;SDS011;7016;48.172;8.058;2022-08-21T14:16:24;4.88;;;1.88;;
13891;SDS011;7016;48.172;8.058;2022-08-21T14:21:27;6.32;;;1.80;;
13891;SDS011;7016;48.172;8.058;2022-08-21T14:24:05;5.18;;;1.70;;
13891;SDS011;7016;48.172;8.058;2022-08-21T14:26:36;6.28;;;2.03;;
13891;SDS011;7016;48.172;8.058;2022-08-21T14:29:09;7.22;;;1.80;;
13891;SDS011;7016;48.172;8.058;2022-08-21T14:31:38;3.35;;;1.80;;
13891;SDS011;7016;48.172;8.058;2022-08-21T14:34:04;6.10;;;2.25;;
13891;SDS011;7016;48.172;8.058;2022-08-21T14:36:30;5.32;;;2.03;;
13891;SDS011;7016;48.172;8.058;2022-08-21T14:38:55;5.75;;;1.88;;
13891;SDS011;7016;48.172;8.058;2022-08-21T14:41:22;5.47;;;2.10;;
13891;SDS011;7016;48.172;8.058;2022-08-21T14:43:50;5.50;;;1.77;;
13891;SDS011;7016;48.172;8.058;2022-08-21T14:46:20;6.00;;;1.77;;
13891;SDS011;7016;48.172;8.058;2022-08-21T14:48:51;4.13;;;1.90;;
13891;SDS011;7016;48.172;8.058;2022-08-21T14:51:17;6.78;;;1.88;;
13891;SDS011;7016;48.172;8.058;2022-08-21T14:53:43;3.85;;;2.08;;
13891;SDS011;7016;48.172;8.058;2022-08-21T14:56:09;3.78;;;1.83;;
13891;SDS011;7016;48.172;8.058;2022-08-21T14:58:40;7.40;;;1.85;;
13891;SDS011;7016;48.172;8.058;2022-08-21T15:01:09;5.78;;;1.70;;
13891;SDS011;7016;48.172;8.058;2022-08-21T15:03:37;5.80;;;2.00;;
13891;SDS011;7016;48.172;8.058;2022-08-21T15:06:03;6.53;;;1.90;;
13891;SDS011;7016;48.172;8.058;2022-08-21T15:08:30;4.65;;;2.15;;
13891;SDS011;7016;48.172;8.058;2022-08-21T15:10:57;6.00;;;1.90;;
13891;SDS011;7016;48.172;8.058;2022-08-21T15:13:23;3.60;;;1.80;;
13891;SDS011;7016;48.172;8.058;2022-08-21T15:15:50;4.95;;;1.90;;
13891;SDS011;7016;48.172;8.058;2022-08-21T15:18:21;4.90;;;2.10;;
13891;SDS011;7016;48.172;8.058;2022-08-21T15:20:48;6.05;;;1.95;;
13891;SDS011;7016;48.172;8.058;2022-08-21T15:23:14;3.90;;;1.95;;
13891;SDS011;7016;48.172;8.058;2022-08-21T15:25:41;4.25;;;1.88;;
13891;SDS011;7016;48.172;8.058;2022-08-21T15:28:09;4.30;;;1.90;;
13891;SDS011;7016;48.172;8.058;2022-08-21T15:30:36;3.85;;;1.90;;
13891;SDS011;7016;48.172;8.058;2022-08-21T15:33:03;6.50;;;2.10;;
13891;SDS011;7016;48.172;8.058;2022-08-21T15:35:29;8.07;;;1.73;;
13891;SDS011;7016;48.172;8.058;2022-08-21T15:37:55;3.38;;;1.80;;
13891;SDS011;7016;48.172;8.058;2022-08-21T15:40:21;6.05;;;1.88;;
13891;SDS011;7016;48.172;8.058;2022-08-21T15:42:47;4.53;;;1.70;;
13891;SDS011;7016;48.172;8.058;2022-08-21T15:45:13;5.35;;;2.10;;
13891;SDS011;7016;48.172;8.058;2022-08-21T15:47:43;3.47;;;1.73;;
13891;SDS011;7016;48.172;8.058;2022-08-21T15:50:10;4.18;;;1.67;;
13891;SDS011;7016;48.172;8.058;2022-08-21T15:52:37;4.70;;;1.90;;
13891;SDS011;7016;48.172;8.058;2022-08-21T15:55:04;5.57;;;1.70;;
13891;SDS011;7016;48.172;8.058;2022-08-21T15:57:31;4.32;;;1.73;;
13891;SDS011;7016;48.172;8.058;2022-08-21T16:00:00;10.88;;;2.20;;
13891;SDS011;7016;48.172;8.058;2022-08-21T16:02:37;5.13;;;1.67;;
13891;SDS011;7016;48.172;8.058;2022-08-21T16:05:05;6.22;;;2.00;;
13891;SDS011;7016;48.172;8.058;2022-08-21T16:07:32;5.90;;;1.80;;
13891;SDS011;7016;48.172;8.058;2022-08-21T16:09:58;4.90;;;1.90;;
13891;SDS011;7016;48.172;8.058;2022-08-21T16:12:25;4.35;;;1.90;;
13891;SDS011;7016;48.172;8.058;2022-08-21T16:14:56;4.35;;;2.00;;
13891;SDS011;7016;48.172;8.058;2022-08-21T16:17:29;4.70;;;1.85;;
13891;SDS011;7016;48.172;8.058;2022-08-21T16:19:58;3.80;;;1.73;;
13891;SDS011;7016;48.172;8.058;2022-08-21T16:22:25;4.18;;;1.83;;
13891;SDS011;7016;48.172;8.058;2022-08-21T16:24:51;2.85;;;1.80;;
13891;SDS011;7016;48.172;8.058;2022-08-21T16:27:17;4.53;;;1.88;;
13891;SDS011;7016;48.172;8.058;2022-08-21T16:29:43;6.63;;;1.92;;
13891;SDS011;7016;48.172;8.058;2022-08-21T16:32:10;11.00;;;1.90;;
13891;SDS011;7016;48.172;8.058;2022-08-21T16:34:44;4.70;;;1.90;;
13891;SDS011;7016;48.172;8.058;2022-08-21T16:37:12;4.63;;;1.67;;
13891;SDS011;7016;48.172;8.058;2022-08-21T16:39:38;4.50;;;2.08;;
13891;SDS011;7016;48.172;8.058;2022-08-21T16:42:04;6.60;;;1.80;;
13891;SDS011;7016;48.172;8.058;2022-08-21T16:44:31;5.53;;;1.98;;
13891;SDS011;7016;48.172;8.058;2022-08-21T16:46:59;3.70;;;1.80;;
13891;SDS011;7016;48.172;8.058;2022-08-21T16:49:25;3.90;;;1.90;;
13891;SDS011;7016;48.172;8.058;2022-08-21T16:51:51;3.47;;;1.80;;
13891;SDS011;7016;48.172;8.058;2022-08-21T16:54:17;3.35;;;1.70;;
13891;SDS011;7016;48.172;8.058;2022-08-21T16:56:43;3.58;;;1.80;;